Terminal Aerodrome Forecast
Issued by NWS

Home | Current Version | Previous Version | Text Only | Print | Product List | Glossary On
Versions: 1 2 3 4 5 6 7 8 9 10 11 12 13
296
FTPA31 PHFO 162331
TAFHKO
TAF
PHKO 162331Z 1700/1724 21010KT P6SM FEW040 SCT070
     FM170600 12004KT P6SM FEW040 SCT070
     FM172100 22010KT P6SM FEW040 SCT070=

USA.gov is the U.S. government's official web portal to all federal, state and local government web resources and services.